1861 NOT_NAMED (1861042S16062)


IBTrACS version v04r00. Visit IBTrACS website for data access.
Please direct all questions to the IBTrACS Q and A forum

Storm track - Intensity - Wind Radii - Intensity Data - Source Data - All data

Summary Information

Storm ID 1861042S16062
Start Feb 11 06Z
End Feb 21 06Z
ATCF IDs
Track status Best track data.

Storm track plot

Map of storm track

Intensity plots

No Intensity information for this storm


Radial wind information

No radial wind information for this storm


Position and Intensity Table

BASIN ISO_TIME_________ NATURE LAT LON
degrees north degrees east
SI 1861-02-11 06:00:00 NR -15.80 62.10
SI 09:00:00 NR -15.85 62.01
SI 12:00:00 NR -15.91 61.91
SI 15:00:00 NR -15.97 61.80
SI 18:00:00 NR -16.03 61.68
SI 21:00:00 NR -16.11 61.55
SI 1861-02-12 00:00:00 NR -16.19 61.39
SI 03:00:00 NR -16.29 61.21
SI 06:00:00 NR -16.40 61.00
SI 09:00:00 NR -16.53 60.76
SI 12:00:00 NR -16.66 60.49
SI 15:00:00 NR -16.81 60.21
SI 18:00:00 NR -16.96 59.92
SI 21:00:00 NR -17.11 59.64
SI 1861-02-13 00:00:00 NR -17.25 59.37
SI 03:00:00 NR -17.38 59.12
SI 06:00:00 NR -17.50 58.90
SI 09:00:00 NR -17.59 58.74
SI 12:00:00 NR -17.67 58.62
SI 15:00:00 NR -17.73 58.51
SI 18:00:00 NR -17.79 58.43
SI 21:00:00 NR -17.85 58.36
SI 1861-02-14 00:00:00 NR -17.90 58.30
SI 03:00:00 NR -17.95 58.25
SI 06:00:00 NR -18.00 58.20
SI 09:00:00 NR -18.05 58.13
SI 12:00:00 NR -18.10 58.07
SI 15:00:00 NR -18.15 58.01
SI 18:00:00 NR -18.20 57.96
SI 21:00:00 NR -18.26 57.90
SI 1861-02-15 00:00:00 NR -18.33 57.84
SI 03:00:00 NR -18.41 57.77
SI 06:00:00 NR -18.50 57.70
SI 09:00:00 NR -18.59 57.61
SI 12:00:00 NR -18.69 57.51
SI 15:00:00 NR -18.80 57.41
SI 18:00:00 NR -18.93 57.31
SI 21:00:00 NR -19.07 57.20
SI 1861-02-16 00:00:00 NR -19.23 57.10
SI 03:00:00 NR -19.40 57.00
SI 06:00:00 NR -19.60 56.90
SI 09:00:00 NR -19.80 56.80
SI 12:00:00 NR -20.03 56.69
SI 15:00:00 NR -20.27 56.59
SI 18:00:00 NR -20.53 56.50
SI 21:00:00 NR -20.80 56.43
SI 1861-02-17 00:00:00 NR -21.09 56.36
SI 03:00:00 NR -21.39 56.32
SI 06:00:00 NR -21.70 56.30
SI 09:00:00 NR -22.02 56.28
SI 12:00:00 NR -22.34 56.28
SI 15:00:00 NR -22.68 56.30
SI 18:00:00 NR -23.03 56.35
SI 21:00:00 NR -23.37 56.42
SI 1861-02-18 00:00:00 NR -23.72 56.52
SI 03:00:00 NR -24.06 56.64
SI 06:00:00 NR -24.40 56.80
SI 09:00:00 NR -24.73 56.99
SI 12:00:00 NR -25.06 57.21
SI 15:00:00 NR -25.39 57.46
SI 18:00:00 NR -25.70 57.73
SI 21:00:00 NR -26.00 58.01
SI 1861-02-19 00:00:00 NR -26.28 58.31
SI 03:00:00 NR -26.55 58.61
SI 06:00:00 NR -26.80 58.90
SI 09:00:00 NR -27.04 59.18
SI 12:00:00 NR -27.25 59.46
SI 15:00:00 NR -27.45 59.74
SI 18:00:00 NR -27.64 60.01
SI 21:00:00 NR -27.80 60.28
SI 1861-02-20 00:00:00 NR -27.95 60.53
SI 03:00:00 NR -28.08 60.77
SI 06:00:00 NR -28.20 61.00
SI 09:00:00 NR -28.30 61.21
SI 12:00:00 NR -28.40 61.40
SI 15:00:00 NR -28.48 61.57
SI 18:00:00 NR -28.55 61.73
SI 21:00:00 NR -28.62 61.88
SI 1861-02-21 00:00:00 NR -28.68 62.02
SI 03:00:00 NR -28.74 62.16
SI 06:00:00 NR -28.80 62.30

Source Information

Agency Information
USA
TOKYO
CMA
HKO
NEWDELHI
REUNION WMO-Best-Tracks.txt:Line=336:xxxx861050
BOM
NADI
WELLINGTON
DS824
TD9636
TD9635
NEUMANN
MLC

All available IBTrACS Data

SEASON BASIN SUBBASIN ISO_TIME_________ NATURE LAT LON WMO AGENCY DIST2LAND LANDFALL IFLAG USA SSHS REUNION LAT REUNION LON REUNION TYPE REUNION TNUM STORM SPEED STORM DIR
Year degrees north degrees east km km 1 degrees north degrees east 1 kts degrees
1861 SI MM 1861-02-11 06:00:00 NR -15.80 62.10 reunion 669 653 _____O________ -1 -15.80 62.10 99 9.90 2 239
1861 SI MM 09:00:00 NR -15.85 62.01 653 646 _____P________ -1 -15.85 62.01 99 2 240
1861 SI MM 12:00:00 NR -15.91 61.91 646 631 _____P________ -1 -15.91 61.91 99 2 240
1861 SI MM 15:00:00 NR -15.97 61.80 631 623 _____P________ -1 -15.97 61.80 99 3 240
1861 SI MM 18:00:00 NR -16.03 61.68 623 608 _____P________ -1 -16.03 61.68 99 3 240
1861 SI MM 21:00:00 NR -16.11 61.55 601 585 _____P________ -1 -16.11 61.55 99 3 240
1861 SI MM 1861-02-12 00:00:00 NR -16.19 61.39 585 563 _____P________ -1 -16.19 61.39 99 4 241
1861 SI MM 03:00:00 NR -16.29 61.21 563 541 _____P________ -1 -16.29 61.21 99 4 241
1861 SI MM 06:00:00 NR -16.40 61.00 reunion 541 518 _____O________ -1 -16.40 61.00 99 9.90 5 241
1861 SI MM 09:00:00 NR -16.53 60.76 518 481 _____P________ -1 -16.53 60.76 99 6 242
1861 SI MM 12:00:00 NR -16.66 60.49 481 453 _____P________ -1 -16.66 60.49 99 6 242
1861 SI MM 15:00:00 NR -16.81 60.21 453 417 _____P________ -1 -16.81 60.21 99 6 242
1861 SI MM 18:00:00 NR -16.96 59.92 417 396 _____P________ -1 -16.96 59.92 99 6 242
1861 SI MM 21:00:00 NR -17.11 59.64 390 370 _____P________ -1 -17.11 59.64 99 6 241
1861 SI MM 1861-02-13 00:00:00 NR -17.25 59.37 370 336 _____P________ -1 -17.25 59.37 99 6 241
1861 SI MM 03:00:00 NR -17.38 59.12 336 317 _____P________ -1 -17.38 59.12 99 5 241
1861 SI MM 06:00:00 NR -17.50 58.90 reunion 317 302 _____O________ -1 -17.50 58.90 99 9.90 4 240
1861 SI MM 09:00:00 NR -17.59 58.74 298 284 _____P________ -1 -17.59 58.74 99 3 238
1861 SI MM 12:00:00 NR -17.67 58.62 284 281 _____P________ -1 -17.67 58.62 99 3 237
1861 SI MM 15:00:00 NR -17.73 58.51 281 267 _____P________ -1 -17.73 58.51 99 2 234
1861 SI MM 18:00:00 NR -17.79 58.43 267 267 _____P________ -1 -17.79 58.43 99 2 231
1861 SI MM 21:00:00 NR -17.85 58.36 267 254 _____P________ -1 -17.85 58.36 99 2 229
1861 SI MM 1861-02-14 00:00:00 NR -17.90 58.30 254 254 _____P________ -1 -17.90 58.30 99 1 225
1861 SI MM 03:00:00 NR -17.95 58.25 254 240 _____P________ -1 -17.95 58.25 99 1 225
1861 SI MM 06:00:00 NR -18.00 58.20 reunion 240 238 _____O________ -1 -18.00 58.20 99 9.90 2 228
1861 SI MM 09:00:00 NR -18.05 58.13 227 227 _____P________ -1 -18.05 58.13 99 2 229
1861 SI MM 12:00:00 NR -18.10 58.07 227 225 _____P________ -1 -18.10 58.07 99 2 227
1861 SI MM 15:00:00 NR -18.15 58.01 214 214 _____P________ -1 -18.15 58.01 99 2 227
1861 SI MM 18:00:00 NR -18.20 57.96 214 202 _____P________ -1 -18.20 57.96 99 2 224
1861 SI MM 21:00:00 NR -18.26 57.90 202 201 _____P________ -1 -18.26 57.90 99 2 221
1861 SI MM 1861-02-15 00:00:00 NR -18.33 57.84 201 190 _____P________ -1 -18.33 57.84 99 2 218
1861 SI MM 03:00:00 NR -18.41 57.77 190 178 _____P________ -1 -18.41 57.77 99 2 218
1861 SI MM 06:00:00 NR -18.50 57.70 reunion 178 167 _____O________ -1 -18.50 57.70 99 9.90 2 220
1861 SI MM 09:00:00 NR -18.59 57.61 167 156 _____P________ -1 -18.59 57.61 99 3 222
1861 SI MM 12:00:00 NR -18.69 57.51 156 145 _____P________ -1 -18.69 57.51 99 3 222
1861 SI MM 15:00:00 NR -18.80 57.41 145 134 _____P________ -1 -18.80 57.41 99 3 219
1861 SI MM 18:00:00 NR -18.93 57.31 135 116 _____P________ -1 -18.93 57.31 99 3 217
1861 SI MM 21:00:00 NR -19.07 57.20 116 109 _____P________ -1 -19.07 57.20 99 4 214
1861 SI MM 1861-02-16 00:00:00 NR -19.23 57.10 109 94 _____P________ -1 -19.23 57.10 99 4 210
1861 SI MM 03:00:00 NR -19.40 57.00 94 84 _____P________ -1 -19.40 57.00 99 4 207
1861 SI MM 06:00:00 NR -19.60 56.90 reunion 84 77 _____O________ -1 -19.60 56.90 99 9.90 4 205
1861 SI MM 09:00:00 NR -19.80 56.80 80 76 _____P________ -1 -19.80 56.80 99 5 204
1861 SI MM 12:00:00 NR -20.03 56.69 80 76 _____P________ -1 -20.03 56.69 99 5 202
1861 SI MM 15:00:00 NR -20.27 56.59 76 73 _____P________ -1 -20.27 56.59 99 5 200
1861 SI MM 18:00:00 NR -20.53 56.50 83 70 _____P________ -1 -20.53 56.50 99 6 196
1861 SI MM 21:00:00 NR -20.80 56.43 70 62 _____P________ -1 -20.80 56.43 99 6 193
1861 SI MM 1861-02-17 00:00:00 NR -21.09 56.36 62 51 _____P________ -1 -21.09 56.36 99 6 190
1861 SI MM 03:00:00 NR -21.39 56.32 52 52 _____P________ -1 -21.39 56.32 99 6 186
1861 SI MM 06:00:00 NR -21.70 56.30 reunion 68 68 _____O________ -1 -21.70 56.30 99 9.90 6 183
1861 SI MM 09:00:00 NR -22.02 56.28 93 93 _____P________ -1 -22.02 56.28 99 6 0
1861 SI MM 12:00:00 NR -22.34 56.28 123 123 _____P________ -1 -22.34 56.28 99 7 179
1861 SI MM 15:00:00 NR -22.68 56.30 162 162 _____P________ -1 -22.68 56.30 99 7 175
1861 SI MM 18:00:00 NR -23.03 56.35 192 192 _____P________ -1 -23.03 56.35 99 7 172
1861 SI MM 21:00:00 NR -23.37 56.42 238 238 _____P________ -1 -23.37 56.42 99 7 168
1861 SI MM 1861-02-18 00:00:00 NR -23.72 56.52 273 273 _____P________ -1 -23.72 56.52 99 7 164
1861 SI MM 03:00:00 NR -24.06 56.64 318 318 _____P________ -1 -24.06 56.64 99 7 159
1861 SI MM 06:00:00 NR -24.40 56.80 reunion 357 357 _____O________ -1 -24.40 56.80 99 9.90 7 155
1861 SI MM 09:00:00 NR -24.73 56.99 395 395 _____P________ -1 -24.73 56.99 99 8 151
1861 SI MM 12:00:00 NR -25.06 57.21 444 444 _____P________ -1 -25.06 57.21 99 8 147
1861 SI MM 15:00:00 NR -25.39 57.46 487 487 _____P________ -1 -25.39 57.46 99 8 144
1861 SI MM 18:00:00 NR -25.70 57.73 526 526 _____P________ -1 -25.70 57.73 99 8 141
1861 SI MM 21:00:00 NR -26.00 58.01 569 569 _____P________ -1 -26.00 58.01 99 8 138
1861 SI MM 1861-02-19 00:00:00 NR -26.28 58.31 612 612 _____P________ -1 -26.28 58.31 99 8 136
1861 SI MM 03:00:00 NR -26.55 58.61 656 656 _____P________ -1 -26.55 58.61 99 7 134
1861 SI MM 06:00:00 NR -26.80 58.90 reunion 690 690 _____O________ -1 -26.80 58.90 99 9.90 7 133
1861 SI MM 09:00:00 NR -27.04 59.18 724 724 _____P________ -1 -27.04 59.18 99 7 132
1861 SI MM 12:00:00 NR -27.25 59.46 767 767 _____P________ -1 -27.25 59.46 99 6 130
1861 SI MM 15:00:00 NR -27.45 59.74 797 797 _____P________ -1 -27.45 59.74 99 6 128
1861 SI MM 18:00:00 NR -27.64 60.01 822 822 _____P________ -1 -27.64 60.01 99 6 126
1861 SI MM 21:00:00 NR -27.80 60.28 856 856 _____P________ -1 -27.80 60.28 99 6 124
1861 SI MM 1861-02-20 00:00:00 NR -27.95 60.53 874 874 _____P________ -1 -27.95 60.53 99 5 123
1861 SI MM 03:00:00 NR -28.08 60.77 905 905 _____P________ -1 -28.08 60.77 99 5 121
1861 SI MM 06:00:00 NR -28.20 61.00 reunion 922 922 _____O________ -1 -28.20 61.00 99 9.90 4 120
1861 SI MM 09:00:00 NR -28.30 61.21 940 940 _____P________ -1 -28.30 61.21 99 4 120
1861 SI MM 12:00:00 NR -28.40 61.40 958 958 _____P________ -1 -28.40 61.40 99 4 119
1861 SI MM 15:00:00 NR -28.48 61.57 976 976 _____P________ -1 -28.48 61.57 99 3 118
1861 SI MM 18:00:00 NR -28.55 61.73 991 991 _____P________ -1 -28.55 61.73 99 3 117
1861 SI MM 21:00:00 NR -28.62 61.88 999 999 _____P________ -1 -28.62 61.88 99 3 116
1861 SI MM 1861-02-21 00:00:00 NR -28.68 62.02 1013 1013 _____P________ -1 -28.68 62.02 99 3 116
1861 SI MM 03:00:00 NR -28.74 62.16 1022 1022 _____P________ -1 -28.74 62.16 99 3 116
1861 SI MM 06:00:00 NR -28.80 62.30 reunion 1036 _____O________ -1 -28.80 62.30 99 9.90 3 116